Frank Wiley Field
KMLS : now visible

Airfield :











YOU CAN JOIN US ON...

 
LOGIN :

Register | Disclaimer

   EN    FR    IT 

 









Legend :    VFR   Marginal VFR   IFR   Intensive IFR   Very Intensive IFR
Visi :
Ceiling :
>= 8 km
>= 3000ft
5 to 8 km
1000 to 3000 ft
1500m to 5 km
500 to 1000 ft
800 to 1500m
200 to 500 ft
< 800m
< 200 ft
Symbols :   Thunderstorms  Fog  Heavy snow  Heavy precipitations  Wind > 20 kt






- Airport Elevation : 2630 ft
- IATA code : MLS


KMLS - Frank Wiley Field

CURRENT METAR :
  • 071553Z AUTO 11003KT 10SM CLR 06/04 A3048 RMK AO2 SLP337 T00610039

EXPIRED METARs :
  • 071453Z AUTO 13005KT 10SM CLR 04/03 A3048 RMK AO2 SLP338 T00440028 52002
  • 071353Z AUTO 13004KT 10SM CLR 03/03 A3048 RMK AO2 SLP339 T00330028

TAF KMLS
Valid from the 07 at 12:00 until the 08 at 12:00 UTC


071132Z 0712/0812 12006KT P6SM VCFG FEW002
FM071600 14006KT P6SM SKC
KZLC FIR / North America



MET'MAP, your aeronautical weather chart ! - Copyright ORBIFLY December 2007 - Disclaimer

ORBIFLY MET'MAP TEAM :

Programming & Development : Alexandra Zaïnal
Original concept : Baudouin d'Aumeries
Technical & hardware support : Manuel Goepfert
Assistance : Marc-Olivier Méhu




SOURCES & CREDITS :

   NOAA       Earth
Advisory